sensor_id;sensor_type;location;lat;lon;timestamp;P1;durP1;ratioP1;P2;durP2;ratioP2
18997;SDS011;9632;51.018;4.284;2022-12-20T00:01:09;6.00;;;2.00;;
18997;SDS011;9632;51.018;4.284;2022-12-20T00:03:36;6.90;;;1.80;;
18997;SDS011;9632;51.018;4.284;2022-12-20T00:06:02;7.25;;;2.72;;
18997;SDS011;9632;51.018;4.284;2022-12-20T00:08:29;6.18;;;2.10;;
18997;SDS011;9632;51.018;4.284;2022-12-20T00:10:55;7.47;;;2.60;;
18997;SDS011;9632;51.018;4.284;2022-12-20T00:13:23;4.75;;;2.33;;
18997;SDS011;9632;51.018;4.284;2022-12-20T00:15:49;7.20;;;1.98;;
18997;SDS011;9632;51.018;4.284;2022-12-20T00:18:15;4.80;;;2.00;;
18997;SDS011;9632;51.018;4.284;2022-12-20T00:20:40;5.00;;;2.00;;
18997;SDS011;9632;51.018;4.284;2022-12-20T00:23:06;4.78;;;1.80;;
18997;SDS011;9632;51.018;4.284;2022-12-20T00:25:31;6.63;;;1.92;;
18997;SDS011;9632;51.018;4.284;2022-12-20T00:27:57;5.85;;;2.10;;
18997;SDS011;9632;51.018;4.284;2022-12-20T00:30:23;5.80;;;1.83;;
18997;SDS011;9632;51.018;4.284;2022-12-20T00:32:48;5.38;;;2.35;;
18997;SDS011;9632;51.018;4.284;2022-12-20T00:35:14;4.28;;;1.80;;
18997;SDS011;9632;51.018;4.284;2022-12-20T00:37:40;5.85;;;1.77;;
18997;SDS011;9632;51.018;4.284;2022-12-20T00:40:06;2.88;;;1.73;;
18997;SDS011;9632;51.018;4.284;2022-12-20T00:42:32;4.68;;;1.90;;
18997;SDS011;9632;51.018;4.284;2022-12-20T00:44:57;11.38;;;2.33;;
18997;SDS011;9632;51.018;4.284;2022-12-20T00:47:23;5.25;;;2.20;;
18997;SDS011;9632;51.018;4.284;2022-12-20T00:49:49;6.18;;;2.05;;
18997;SDS011;9632;51.018;4.284;2022-12-20T00:52:17;6.28;;;2.10;;
18997;SDS011;9632;51.018;4.284;2022-12-20T00:54:43;4.45;;;2.03;;
18997;SDS011;9632;51.018;4.284;2022-12-20T00:57:09;3.80;;;1.90;;
18997;SDS011;9632;51.018;4.284;2022-12-20T00:59:34;4.55;;;1.90;;
18997;SDS011;9632;51.018;4.284;2022-12-20T01:02:00;7.38;;;1.88;;
18997;SDS011;9632;51.018;4.284;2022-12-20T01:04:25;4.15;;;1.98;;
18997;SDS011;9632;51.018;4.284;2022-12-20T01:06:51;5.53;;;2.05;;
18997;SDS011;9632;51.018;4.284;2022-12-20T01:09:17;4.20;;;2.08;;
18997;SDS011;9632;51.018;4.284;2022-12-20T01:11:42;4.70;;;2.00;;
18997;SDS011;9632;51.018;4.284;2022-12-20T01:14:12;3.13;;;1.60;;
18997;SDS011;9632;51.018;4.284;2022-12-20T01:16:41;4.53;;;1.90;;
18997;SDS011;9632;51.018;4.284;2022-12-20T01:19:12;4.68;;;1.80;;
18997;SDS011;9632;51.018;4.284;2022-12-20T01:21:39;4.30;;;1.95;;
18997;SDS011;9632;51.018;4.284;2022-12-20T01:24:09;4.60;;;1.85;;
18997;SDS011;9632;51.018;4.284;2022-12-20T01:26:35;5.40;;;1.80;;
18997;SDS011;9632;51.018;4.284;2022-12-20T01:29:00;5.53;;;1.70;;
18997;SDS011;9632;51.018;4.284;2022-12-20T01:31:27;3.00;;;1.73;;
18997;SDS011;9632;51.018;4.284;2022-12-20T01:33:54;6.55;;;1.90;;
18997;SDS011;9632;51.018;4.284;2022-12-20T01:36:24;5.70;;;1.98;;
18997;SDS011;9632;51.018;4.284;2022-12-20T01:38:55;3.67;;;1.73;;
18997;SDS011;9632;51.018;4.284;2022-12-20T01:41:22;5.25;;;1.88;;
18997;SDS011;9632;51.018;4.284;2022-12-20T01:46:14;4.82;;;1.80;;
18997;SDS011;9632;51.018;4.284;2022-12-20T01:48:39;6.53;;;2.25;;
18997;SDS011;9632;51.018;4.284;2022-12-20T01:51:08;4.10;;;1.40;;
18997;SDS011;9632;51.018;4.284;2022-12-20T01:53:34;5.22;;;1.80;;
18997;SDS011;9632;51.018;4.284;2022-12-20T01:56:00;5.47;;;1.77;;
18997;SDS011;9632;51.018;4.284;2022-12-20T01:58:29;5.07;;;1.65;;
18997;SDS011;9632;51.018;4.284;2022-12-20T02:00:55;5.15;;;1.90;;
18997;SDS011;9632;51.018;4.284;2022-12-20T02:03:20;3.28;;;1.60;;
18997;SDS011;9632;51.018;4.284;2022-12-20T02:05:47;5.07;;;1.65;;
18997;SDS011;9632;51.018;4.284;2022-12-20T02:08:14;7.40;;;1.85;;
18997;SDS011;9632;51.018;4.284;2022-12-20T02:10:50;4.20;;;1.67;;
18997;SDS011;9632;51.018;4.284;2022-12-20T02:13:25;5.50;;;2.10;;
18997;SDS011;9632;51.018;4.284;2022-12-20T02:16:05;3.55;;;1.80;;
18997;SDS011;9632;51.018;4.284;2022-12-20T02:18:36;3.65;;;1.88;;
18997;SDS011;9632;51.018;4.284;2022-12-20T02:32:16;7.05;;;1.80;;
18997;SDS011;9632;51.018;4.284;2022-12-20T02:34:48;3.53;;;1.58;;
18997;SDS011;9632;51.018;4.284;2022-12-20T02:37:14;5.90;;;1.67;;
18997;SDS011;9632;51.018;4.284;2022-12-20T02:39:40;5.75;;;1.75;;
18997;SDS011;9632;51.018;4.284;2022-12-20T02:42:09;4.22;;;1.60;;
18997;SDS011;9632;51.018;4.284;2022-12-20T02:44:40;3.10;;;1.50;;
18997;SDS011;9632;51.018;4.284;2022-12-20T02:47:43;5.10;;;1.60;;
18997;SDS011;9632;51.018;4.284;2022-12-20T02:50:17;4.50;;;1.67;;
18997;SDS011;9632;51.018;4.284;2022-12-20T02:52:47;4.45;;;1.73;;
18997;SDS011;9632;51.018;4.284;2022-12-20T02:55:14;3.83;;;1.70;;
18997;SDS011;9632;51.018;4.284;2022-12-20T02:57:51;5.18;;;2.00;;
18997;SDS011;9632;51.018;4.284;2022-12-20T03:00:23;4.32;;;1.58;;
18997;SDS011;9632;51.018;4.284;2022-12-20T03:02:49;8.00;;;1.80;;
18997;SDS011;9632;51.018;4.284;2022-12-20T03:05:35;3.42;;;1.83;;
18997;SDS011;9632;51.018;4.284;2022-12-20T03:08:09;4.78;;;1.73;;
18997;SDS011;9632;51.018;4.284;2022-12-20T03:10:35;3.85;;;1.60;;
18997;SDS011;9632;51.018;4.284;2022-12-20T03:13:01;3.70;;;1.67;;
18997;SDS011;9632;51.018;4.284;2022-12-20T03:15:27;5.30;;;1.60;;
18997;SDS011;9632;51.018;4.284;2022-12-20T03:17:52;2.97;;;1.35;;
18997;SDS011;9632;51.018;4.284;2022-12-20T03:20:18;5.63;;;1.60;;
18997;SDS011;9632;51.018;4.284;2022-12-20T03:22:43;6.75;;;1.60;;
18997;SDS011;9632;51.018;4.284;2022-12-20T03:25:09;3.70;;;1.65;;
18997;SDS011;9632;51.018;4.284;2022-12-20T03:27:34;4.45;;;1.60;;
18997;SDS011;9632;51.018;4.284;2022-12-20T03:30:00;4.13;;;1.60;;
18997;SDS011;9632;51.018;4.284;2022-12-20T03:32:26;6.15;;;1.40;;
18997;SDS011;9632;51.018;4.284;2022-12-20T03:34:51;4.32;;;1.92;;
18997;SDS011;9632;51.018;4.284;2022-12-20T03:37:17;4.32;;;1.58;;
18997;SDS011;9632;51.018;4.284;2022-12-20T03:39:42;3.60;;;1.58;;
18997;SDS011;9632;51.018;4.284;2022-12-20T03:42:08;4.35;;;1.45;;
18997;SDS011;9632;51.018;4.284;2022-12-20T03:44:34;4.22;;;1.77;;
18997;SDS011;9632;51.018;4.284;2022-12-20T03:46:59;3.20;;;1.63;;
18997;SDS011;9632;51.018;4.284;2022-12-20T03:49:25;5.60;;;1.58;;
18997;SDS011;9632;51.018;4.284;2022-12-20T03:51:51;6.15;;;1.70;;
18997;SDS011;9632;51.018;4.284;2022-12-20T03:54:17;6.97;;;1.63;;
18997;SDS011;9632;51.018;4.284;2022-12-20T03:56:43;4.35;;;1.48;;
18997;SDS011;9632;51.018;4.284;2022-12-20T03:59:08;4.68;;;1.80;;
18997;SDS011;9632;51.018;4.284;2022-12-20T04:01:34;5.97;;;1.75;;
18997;SDS011;9632;51.018;4.284;2022-12-20T04:04:01;6.30;;;1.65;;
18997;SDS011;9632;51.018;4.284;2022-12-20T04:06:27;4.95;;;1.67;;
18997;SDS011;9632;51.018;4.284;2022-12-20T04:08:53;4.60;;;1.30;;
18997;SDS011;9632;51.018;4.284;2022-12-20T04:11:19;3.47;;;1.95;;
18997;SDS011;9632;51.018;4.284;2022-12-20T04:13:45;3.45;;;1.50;;
18997;SDS011;9632;51.018;4.284;2022-12-20T04:16:13;5.47;;;1.58;;
18997;SDS011;9632;51.018;4.284;2022-12-20T04:18:39;5.50;;;1.60;;
18997;SDS011;9632;51.018;4.284;2022-12-20T04:21:05;4.00;;;1.55;;
18997;SDS011;9632;51.018;4.284;2022-12-20T04:23:32;5.82;;;1.63;;
18997;SDS011;9632;51.018;4.284;2022-12-20T04:25:58;7.97;;;1.65;;
18997;SDS011;9632;51.018;4.284;2022-12-20T04:28:24;3.90;;;1.50;;
18997;SDS011;9632;51.018;4.284;2022-12-20T04:30:50;5.97;;;1.52;;
18997;SDS011;9632;51.018;4.284;2022-12-20T04:33:15;1.83;;;1.10;;
18997;SDS011;9632;51.018;4.284;2022-12-20T04:35:41;9.15;;;1.52;;
18997;SDS011;9632;51.018;4.284;2022-12-20T04:38:07;5.82;;;1.45;;
18997;SDS011;9632;51.018;4.284;2022-12-20T04:40:32;6.80;;;1.67;;
18997;SDS011;9632;51.018;4.284;2022-12-20T04:42:58;4.28;;;1.50;;
18997;SDS011;9632;51.018;4.284;2022-12-20T04:45:23;10.05;;;1.45;;
18997;SDS011;9632;51.018;4.284;2022-12-20T04:47:49;4.70;;;1.27;;
18997;SDS011;9632;51.018;4.284;2022-12-20T04:50:15;3.97;;;1.40;;
18997;SDS011;9632;51.018;4.284;2022-12-20T04:52:40;5.43;;;1.40;;
18997;SDS011;9632;51.018;4.284;2022-12-20T04:55:25;5.63;;;1.50;;
18997;SDS011;9632;51.018;4.284;2022-12-20T04:57:50;5.28;;;1.35;;
18997;SDS011;9632;51.018;4.284;2022-12-20T05:00:16;4.35;;;1.30;;
18997;SDS011;9632;51.018;4.284;2022-12-20T05:02:42;3.63;;;1.20;;
18997;SDS011;9632;51.018;4.284;2022-12-20T05:05:07;6.00;;;1.20;;
18997;SDS011;9632;51.018;4.284;2022-12-20T05:07:33;3.10;;;1.25;;
18997;SDS011;9632;51.018;4.284;2022-12-20T05:09:59;4.70;;;1.27;;
18997;SDS011;9632;51.018;4.284;2022-12-20T05:12:24;2.75;;;1.23;;
18997;SDS011;9632;51.018;4.284;2022-12-20T05:14:50;2.33;;;1.02;;
18997;SDS011;9632;51.018;4.284;2022-12-20T05:17:15;3.85;;;1.33;;
18997;SDS011;9632;51.018;4.284;2022-12-20T05:19:41;3.35;;;1.33;;
18997;SDS011;9632;51.018;4.284;2022-12-20T05:22:08;2.70;;;1.15;;
18997;SDS011;9632;51.018;4.284;2022-12-20T05:24:53;4.00;;;1.30;;
18997;SDS011;9632;51.018;4.284;2022-12-20T05:27:37;3.28;;;1.10;;
18997;SDS011;9632;51.018;4.284;2022-12-20T05:30:03;3.97;;;1.20;;
18997;SDS011;9632;51.018;4.284;2022-12-20T05:32:29;3.47;;;1.38;;
18997;SDS011;9632;51.018;4.284;2022-12-20T05:34:55;5.60;;;1.25;;
18997;SDS011;9632;51.018;4.284;2022-12-20T05:37:21;5.13;;;1.55;;
18997;SDS011;9632;51.018;4.284;2022-12-20T05:39:46;6.82;;;1.33;;
18997;SDS011;9632;51.018;4.284;2022-12-20T05:42:12;3.17;;;1.27;;
18997;SDS011;9632;51.018;4.284;2022-12-20T05:44:38;4.90;;;1.40;;
18997;SDS011;9632;51.018;4.284;2022-12-20T05:47:03;4.43;;;1.33;;
18997;SDS011;9632;51.018;4.284;2022-12-20T05:49:29;6.82;;;1.40;;
18997;SDS011;9632;51.018;4.284;2022-12-20T05:51:55;6.30;;;1.40;;
18997;SDS011;9632;51.018;4.284;2022-12-20T05:54:20;5.18;;;1.40;;
18997;SDS011;9632;51.018;4.284;2022-12-20T05:56:46;2.97;;;1.20;;
18997;SDS011;9632;51.018;4.284;2022-12-20T05:59:12;2.95;;;1.20;;
18997;SDS011;9632;51.018;4.284;2022-12-20T06:01:37;5.47;;;1.08;;
18997;SDS011;9632;51.018;4.284;2022-12-20T06:04:03;5.53;;;1.30;;
18997;SDS011;9632;51.018;4.284;2022-12-20T06:06:29;3.60;;;1.15;;
18997;SDS011;9632;51.018;4.284;2022-12-20T06:08:54;4.57;;;1.33;;
18997;SDS011;9632;51.018;4.284;2022-12-20T06:11:20;3.38;;;1.08;;
18997;SDS011;9632;51.018;4.284;2022-12-20T06:13:46;2.90;;;0.98;;
18997;SDS011;9632;51.018;4.284;2022-12-20T06:16:11;3.20;;;1.25;;
18997;SDS011;9632;51.018;4.284;2022-12-20T06:18:37;21.63;;;8.32;;
18997;SDS011;9632;51.018;4.284;2022-12-20T06:21:02;5.60;;;1.23;;
18997;SDS011;9632;51.018;4.284;2022-12-20T06:23:28;3.40;;;1.20;;
18997;SDS011;9632;51.018;4.284;2022-12-20T06:25:54;4.35;;;1.05;;
18997;SDS011;9632;51.018;4.284;2022-12-20T06:28:20;3.70;;;1.23;;
18997;SDS011;9632;51.018;4.284;2022-12-20T06:30:52;2.35;;;1.10;;
18997;SDS011;9632;51.018;4.284;2022-12-20T06:33:19;5.22;;;1.30;;
18997;SDS011;9632;51.018;4.284;2022-12-20T06:35:45;6.50;;;0.98;;
18997;SDS011;9632;51.018;4.284;2022-12-20T06:38:10;3.53;;;1.13;;
18997;SDS011;9632;51.018;4.284;2022-12-20T06:40:36;2.78;;;1.10;;
18997;SDS011;9632;51.018;4.284;2022-12-20T06:43:02;2.72;;;0.90;;
18997;SDS011;9632;51.018;4.284;2022-12-20T06:45:27;3.15;;;0.98;;
18997;SDS011;9632;51.018;4.284;2022-12-20T06:47:53;4.78;;;1.05;;
18997;SDS011;9632;51.018;4.284;2022-12-20T06:50:20;4.07;;;1.02;;
18997;SDS011;9632;51.018;4.284;2022-12-20T06:52:46;4.25;;;1.00;;
18997;SDS011;9632;51.018;4.284;2022-12-20T06:55:12;4.13;;;0.95;;
18997;SDS011;9632;51.018;4.284;2022-12-20T06:57:37;3.72;;;1.10;;
18997;SDS011;9632;51.018;4.284;2022-12-20T07:00:03;5.55;;;1.00;;
18997;SDS011;9632;51.018;4.284;2022-12-20T07:02:30;4.45;;;1.10;;
18997;SDS011;9632;51.018;4.284;2022-12-20T07:04:55;3.53;;;1.00;;
18997;SDS011;9632;51.018;4.284;2022-12-20T07:07:21;2.72;;;0.90;;
18997;SDS011;9632;51.018;4.284;2022-12-20T07:09:47;6.28;;;1.27;;
18997;SDS011;9632;51.018;4.284;2022-12-20T07:12:13;4.05;;;1.17;;
18997;SDS011;9632;51.018;4.284;2022-12-20T07:14:38;4.78;;;1.00;;
18997;SDS011;9632;51.018;4.284;2022-12-20T07:17:04;2.80;;;1.10;;
18997;SDS011;9632;51.018;4.284;2022-12-20T07:19:31;4.35;;;1.15;;
18997;SDS011;9632;51.018;4.284;2022-12-20T07:21:57;4.18;;;1.10;;
18997;SDS011;9632;51.018;4.284;2022-12-20T07:24:22;8.95;;;1.40;;
18997;SDS011;9632;51.018;4.284;2022-12-20T07:26:48;3.88;;;1.23;;
18997;SDS011;9632;51.018;4.284;2022-12-20T07:29:14;3.95;;;1.20;;
18997;SDS011;9632;51.018;4.284;2022-12-20T07:31:40;4.15;;;1.15;;
18997;SDS011;9632;51.018;4.284;2022-12-20T07:34:05;8.05;;;2.53;;
18997;SDS011;9632;51.018;4.284;2022-12-20T07:36:31;13.90;;;5.57;;
18997;SDS011;9632;51.018;4.284;2022-12-20T07:38:57;19.27;;;5.05;;
18997;SDS011;9632;51.018;4.284;2022-12-20T07:41:22;8.98;;;3.50;;
18997;SDS011;9632;51.018;4.284;2022-12-20T07:43:49;5.00;;;2.00;;
18997;SDS011;9632;51.018;4.284;2022-12-20T07:46:15;6.43;;;1.88;;
18997;SDS011;9632;51.018;4.284;2022-12-20T07:48:41;6.55;;;1.65;;
18997;SDS011;9632;51.018;4.284;2022-12-20T07:51:09;5.15;;;1.30;;
18997;SDS011;9632;51.018;4.284;2022-12-20T07:53:39;9.27;;;1.52;;
18997;SDS011;9632;51.018;4.284;2022-12-20T07:56:14;7.55;;;1.55;;
18997;SDS011;9632;51.018;4.284;2022-12-20T07:58:42;6.28;;;1.40;;
18997;SDS011;9632;51.018;4.284;2022-12-20T08:01:08;3.58;;;1.52;;
18997;SDS011;9632;51.018;4.284;2022-12-20T08:03:37;8.43;;;1.80;;
18997;SDS011;9632;51.018;4.284;2022-12-20T08:06:07;6.40;;;1.55;;
18997;SDS011;9632;51.018;4.284;2022-12-20T08:08:34;7.32;;;1.83;;
18997;SDS011;9632;51.018;4.284;2022-12-20T08:11:05;5.30;;;1.95;;
18997;SDS011;9632;51.018;4.284;2022-12-20T08:13:32;7.03;;;1.70;;
18997;SDS011;9632;51.018;4.284;2022-12-20T08:15:58;3.28;;;1.40;;
18997;SDS011;9632;51.018;4.284;2022-12-20T08:18:25;7.53;;;2.20;;
18997;SDS011;9632;51.018;4.284;2022-12-20T08:20:51;10.35;;;2.00;;
18997;SDS011;9632;51.018;4.284;2022-12-20T08:23:16;6.13;;;2.08;;
18997;SDS011;9632;51.018;4.284;2022-12-20T08:25:43;4.80;;;1.90;;
18997;SDS011;9632;51.018;4.284;2022-12-20T08:28:09;9.13;;;1.80;;
18997;SDS011;9632;51.018;4.284;2022-12-20T08:30:35;9.23;;;2.40;;
18997;SDS011;9632;51.018;4.284;2022-12-20T08:33:01;7.35;;;1.90;;
18997;SDS011;9632;51.018;4.284;2022-12-20T08:35:26;8.68;;;1.90;;
18997;SDS011;9632;51.018;4.284;2022-12-20T08:37:52;6.95;;;2.05;;
18997;SDS011;9632;51.018;4.284;2022-12-20T08:40:18;4.88;;;1.75;;
18997;SDS011;9632;51.018;4.284;2022-12-20T08:42:44;4.55;;;1.77;;
18997;SDS011;9632;51.018;4.284;2022-12-20T08:45:10;4.68;;;1.95;;
18997;SDS011;9632;51.018;4.284;2022-12-20T08:47:36;4.75;;;1.67;;
18997;SDS011;9632;51.018;4.284;2022-12-20T08:50:02;4.25;;;2.00;;
18997;SDS011;9632;51.018;4.284;2022-12-20T08:52:29;5.15;;;2.47;;
18997;SDS011;9632;51.018;4.284;2022-12-20T08:54:54;7.00;;;1.80;;
18997;SDS011;9632;51.018;4.284;2022-12-20T08:57:20;6.15;;;2.03;;
18997;SDS011;9632;51.018;4.284;2022-12-20T08:59:46;4.97;;;1.48;;
18997;SDS011;9632;51.018;4.284;2022-12-20T09:02:11;6.82;;;1.70;;
18997;SDS011;9632;51.018;4.284;2022-12-20T09:04:37;7.45;;;2.72;;
18997;SDS011;9632;51.018;4.284;2022-12-20T09:07:03;4.53;;;2.47;;
18997;SDS011;9632;51.018;4.284;2022-12-20T09:09:29;6.72;;;2.13;;
18997;SDS011;9632;51.018;4.284;2022-12-20T09:11:55;5.47;;;2.10;;
18997;SDS011;9632;51.018;4.284;2022-12-20T09:14:21;7.13;;;1.92;;
18997;SDS011;9632;51.018;4.284;2022-12-20T09:16:47;4.28;;;1.90;;
18997;SDS011;9632;51.018;4.284;2022-12-20T09:19:15;5.10;;;2.00;;
18997;SDS011;9632;51.018;4.284;2022-12-20T09:21:40;5.28;;;1.73;;
18997;SDS011;9632;51.018;4.284;2022-12-20T09:24:07;6.35;;;1.88;;
18997;SDS011;9632;51.018;4.284;2022-12-20T09:26:36;6.82;;;2.08;;
18997;SDS011;9632;51.018;4.284;2022-12-20T09:29:02;10.00;;;2.45;;
18997;SDS011;9632;51.018;4.284;2022-12-20T09:31:29;5.20;;;1.90;;
18997;SDS011;9632;51.018;4.284;2022-12-20T09:33:55;7.10;;;2.17;;
18997;SDS011;9632;51.018;4.284;2022-12-20T09:36:22;5.22;;;1.63;;
18997;SDS011;9632;51.018;4.284;2022-12-20T09:38:49;6.43;;;2.35;;
18997;SDS011;9632;51.018;4.284;2022-12-20T09:41:28;3.53;;;1.85;;
18997;SDS011;9632;51.018;4.284;2022-12-20T09:43:59;8.02;;;2.90;;
18997;SDS011;9632;51.018;4.284;2022-12-20T09:46:29;12.18;;;4.97;;
18997;SDS011;9632;51.018;4.284;2022-12-20T09:48:55;6.95;;;2.17;;
18997;SDS011;9632;51.018;4.284;2022-12-20T09:59:26;6.60;;;2.17;;
18997;SDS011;9632;51.018;4.284;2022-12-20T10:01:52;7.82;;;1.98;;
18997;SDS011;9632;51.018;4.284;2022-12-20T10:04:22;7.65;;;2.20;;
18997;SDS011;9632;51.018;4.284;2022-12-20T10:12:28;8.77;;;2.00;;
18997;SDS011;9632;51.018;4.284;2022-12-20T10:26:01;11.32;;;5.20;;
18997;SDS011;9632;51.018;4.284;2022-12-20T10:28:34;9.20;;;2.97;;
18997;SDS011;9632;51.018;4.284;2022-12-20T10:31:01;9.25;;;3.33;;
18997;SDS011;9632;51.018;4.284;2022-12-20T10:33:30;8.88;;;2.20;;
18997;SDS011;9632;51.018;4.284;2022-12-20T10:38:50;8.70;;;2.20;;
18997;SDS011;9632;51.018;4.284;2022-12-20T10:41:21;7.72;;;2.20;;
18997;SDS011;9632;51.018;4.284;2022-12-20T10:44:01;9.38;;;2.35;;
18997;SDS011;9632;51.018;4.284;2022-12-20T10:46:41;9.85;;;2.00;;
18997;SDS011;9632;51.018;4.284;2022-12-20T10:51:55;8.25;;;2.20;;
18997;SDS011;9632;51.018;4.284;2022-12-20T10:57:03;3.70;;;2.00;;
18997;SDS011;9632;51.018;4.284;2022-12-20T11:07:33;4.38;;;1.95;;
18997;SDS011;9632;51.018;4.284;2022-12-20T11:10:01;6.32;;;2.20;;
18997;SDS011;9632;51.018;4.284;2022-12-20T11:12:51;4.70;;;2.10;;
18997;SDS011;9632;51.018;4.284;2022-12-20T11:15:26;4.30;;;2.10;;
18997;SDS011;9632;51.018;4.284;2022-12-20T11:17:58;5.00;;;2.17;;
18997;SDS011;9632;51.018;4.284;2022-12-20T11:23:20;6.78;;;2.22;;
18997;SDS011;9632;51.018;4.284;2022-12-20T11:31:18;7.30;;;2.35;;
18997;SDS011;9632;51.018;4.284;2022-12-20T11:37:15;8.65;;;2.40;;
18997;SDS011;9632;51.018;4.284;2022-12-20T11:42:44;5.45;;;2.20;;
18997;SDS011;9632;51.018;4.284;2022-12-20T11:48:44;8.50;;;2.60;;
18997;SDS011;9632;51.018;4.284;2022-12-20T11:51:44;5.97;;;2.70;;
18997;SDS011;9632;51.018;4.284;2022-12-20T11:54:19;5.65;;;2.50;;
18997;SDS011;9632;51.018;4.284;2022-12-20T11:56:46;8.98;;;3.10;;
18997;SDS011;9632;51.018;4.284;2022-12-20T11:59:30;9.52;;;2.35;;
18997;SDS011;9632;51.018;4.284;2022-12-20T12:02:34;12.50;;;5.07;;
18997;SDS011;9632;51.018;4.284;2022-12-20T12:05:14;12.70;;;4.50;;
18997;SDS011;9632;51.018;4.284;2022-12-20T12:07:46;7.18;;;3.00;;
18997;SDS011;9632;51.018;4.284;2022-12-20T12:10:26;6.93;;;2.60;;
18997;SDS011;9632;51.018;4.284;2022-12-20T12:18:16;11.10;;;2.88;;
18997;SDS011;9632;51.018;4.284;2022-12-20T12:20:50;6.22;;;2.75;;
18997;SDS011;9632;51.018;4.284;2022-12-20T12:23:21;5.88;;;2.50;;
18997;SDS011;9632;51.018;4.284;2022-12-20T12:25:51;6.07;;;2.53;;
18997;SDS011;9632;51.018;4.284;2022-12-20T12:28:18;6.32;;;2.20;;
18997;SDS011;9632;51.018;4.284;2022-12-20T12:30:47;6.25;;;2.35;;
18997;SDS011;9632;51.018;4.284;2022-12-20T12:33:27;6.45;;;2.35;;
18997;SDS011;9632;51.018;4.284;2022-12-20T12:41:16;9.02;;;2.50;;
18997;SDS011;9632;51.018;4.284;2022-12-20T12:43:58;6.97;;;2.58;;
18997;SDS011;9632;51.018;4.284;2022-12-20T12:46:47;9.98;;;3.08;;
18997;SDS011;9632;51.018;4.284;2022-12-20T12:49:22;8.25;;;2.95;;
18997;SDS011;9632;51.018;4.284;2022-12-20T12:51:52;9.70;;;3.10;;
18997;SDS011;9632;51.018;4.284;2022-12-20T12:54:22;5.05;;;2.45;;
18997;SDS011;9632;51.018;4.284;2022-12-20T12:56:51;6.07;;;2.95;;
18997;SDS011;9632;51.018;4.284;2022-12-20T13:04:30;6.22;;;2.72;;
18997;SDS011;9632;51.018;4.284;2022-12-20T13:07:41;7.47;;;2.60;;
18997;SDS011;9632;51.018;4.284;2022-12-20T13:19:53;6.57;;;2.80;;
18997;SDS011;9632;51.018;4.284;2022-12-20T13:22:23;5.50;;;2.42;;
18997;SDS011;9632;51.018;4.284;2022-12-20T13:24:53;7.68;;;3.40;;
18997;SDS011;9632;51.018;4.284;2022-12-20T13:27:34;7.90;;;3.10;;
18997;SDS011;9632;51.018;4.284;2022-12-20T13:43:14;7.30;;;2.80;;
18997;SDS011;9632;51.018;4.284;2022-12-20T13:48:35;5.63;;;2.72;;
18997;SDS011;9632;51.018;4.284;2022-12-20T13:51:23;4.55;;;2.25;;
18997;SDS011;9632;51.018;4.284;2022-12-20T13:53:54;7.20;;;2.88;;
18997;SDS011;9632;51.018;4.284;2022-12-20T13:58:51;5.57;;;2.83;;
18997;SDS011;9632;51.018;4.284;2022-12-20T14:01:18;7.28;;;3.10;;
18997;SDS011;9632;51.018;4.284;2022-12-20T14:03:47;6.80;;;2.75;;
18997;SDS011;9632;51.018;4.284;2022-12-20T14:06:13;5.70;;;2.58;;
18997;SDS011;9632;51.018;4.284;2022-12-20T14:08:41;7.13;;;2.67;;
18997;SDS011;9632;51.018;4.284;2022-12-20T14:11:12;9.63;;;2.92;;
18997;SDS011;9632;51.018;4.284;2022-12-20T14:13:59;6.03;;;2.60;;
18997;SDS011;9632;51.018;4.284;2022-12-20T14:16:28;10.55;;;3.60;;
18997;SDS011;9632;51.018;4.284;2022-12-20T14:21:21;8.93;;;3.10;;
18997;SDS011;9632;51.018;4.284;2022-12-20T14:23:48;5.88;;;3.15;;
18997;SDS011;9632;51.018;4.284;2022-12-20T14:26:26;7.10;;;3.17;;
18997;SDS011;9632;51.018;4.284;2022-12-20T14:28:57;6.53;;;2.70;;
18997;SDS011;9632;51.018;4.284;2022-12-20T14:34:03;6.47;;;2.92;;
18997;SDS011;9632;51.018;4.284;2022-12-20T14:36:39;9.68;;;3.10;;
18997;SDS011;9632;51.018;4.284;2022-12-20T14:41:55;10.43;;;3.05;;
18997;SDS011;9632;51.018;4.284;2022-12-20T14:44:25;8.75;;;3.28;;
18997;SDS011;9632;51.018;4.284;2022-12-20T14:46:53;4.63;;;2.70;;
18997;SDS011;9632;51.018;4.284;2022-12-20T14:49:26;7.03;;;3.05;;
18997;SDS011;9632;51.018;4.284;2022-12-20T14:52:04;6.88;;;3.28;;
18997;SDS011;9632;51.018;4.284;2022-12-20T14:57:23;6.13;;;3.47;;
18997;SDS011;9632;51.018;4.284;2022-12-20T15:02:41;8.63;;;3.65;;
18997;SDS011;9632;51.018;4.284;2022-12-20T15:08:10;9.63;;;3.50;;
18997;SDS011;9632;51.018;4.284;2022-12-20T15:10:35;6.88;;;3.60;;
18997;SDS011;9632;51.018;4.284;2022-12-20T15:13:01;6.82;;;3.50;;
18997;SDS011;9632;51.018;4.284;2022-12-20T15:15:27;10.27;;;4.05;;
18997;SDS011;9632;51.018;4.284;2022-12-20T15:17:53;10.35;;;4.10;;
18997;SDS011;9632;51.018;4.284;2022-12-20T15:20:18;9.32;;;4.10;;
18997;SDS011;9632;51.018;4.284;2022-12-20T15:22:45;7.97;;;4.00;;
18997;SDS011;9632;51.018;4.284;2022-12-20T15:25:14;10.00;;;3.88;;
18997;SDS011;9632;51.018;4.284;2022-12-20T15:27:41;8.95;;;4.55;;
18997;SDS011;9632;51.018;4.284;2022-12-20T15:30:11;10.63;;;4.40;;
18997;SDS011;9632;51.018;4.284;2022-12-20T15:32:40;8.88;;;4.43;;
18997;SDS011;9632;51.018;4.284;2022-12-20T15:35:13;10.82;;;4.75;;
18997;SDS011;9632;51.018;4.284;2022-12-20T15:37:39;7.40;;;4.22;;
18997;SDS011;9632;51.018;4.284;2022-12-20T15:40:05;6.35;;;4.00;;
18997;SDS011;9632;51.018;4.284;2022-12-20T15:42:32;9.82;;;5.15;;
18997;SDS011;9632;51.018;4.284;2022-12-20T15:44:58;9.63;;;6.03;;
18997;SDS011;9632;51.018;4.284;2022-12-20T15:47:24;21.52;;;13.00;;
18997;SDS011;9632;51.018;4.284;2022-12-20T15:49:50;12.18;;;6.63;;
18997;SDS011;9632;51.018;4.284;2022-12-20T15:52:19;12.32;;;7.18;;
18997;SDS011;9632;51.018;4.284;2022-12-20T15:54:46;8.95;;;6.00;;
18997;SDS011;9632;51.018;4.284;2022-12-20T15:57:12;7.53;;;5.43;;
18997;SDS011;9632;51.018;4.284;2022-12-20T15:59:39;8.68;;;4.88;;
18997;SDS011;9632;51.018;4.284;2022-12-20T16:02:37;7.80;;;4.75;;
18997;SDS011;9632;51.018;4.284;2022-12-20T16:04:57;5.90;;;3.92;;
18997;SDS011;9632;51.018;4.284;2022-12-20T16:07:23;7.20;;;4.65;;
18997;SDS011;9632;51.018;4.284;2022-12-20T16:09:49;7.40;;;5.10;;
18997;SDS011;9632;51.018;4.284;2022-12-20T16:12:16;6.43;;;4.05;;
18997;SDS011;9632;51.018;4.284;2022-12-20T16:14:49;8.05;;;3.97;;
18997;SDS011;9632;51.018;4.284;2022-12-20T16:17:15;9.63;;;4.60;;
18997;SDS011;9632;51.018;4.284;2022-12-20T16:19:41;10.45;;;5.20;;
18997;SDS011;9632;51.018;4.284;2022-12-20T16:22:14;7.43;;;4.43;;
18997;SDS011;9632;51.018;4.284;2022-12-20T16:24:44;7.53;;;4.80;;
18997;SDS011;9632;51.018;4.284;2022-12-20T16:27:10;14.20;;;7.72;;
18997;SDS011;9632;51.018;4.284;2022-12-20T16:29:36;21.20;;;18.85;;
18997;SDS011;9632;51.018;4.284;2022-12-20T16:32:01;137.50;;;92.78;;
18997;SDS011;9632;51.018;4.284;2022-12-20T16:34:32;208.50;;;138.13;;
18997;SDS011;9632;51.018;4.284;2022-12-20T16:36:57;56.33;;;39.63;;
18997;SDS011;9632;51.018;4.284;2022-12-20T16:39:24;66.47;;;45.08;;
18997;SDS011;9632;51.018;4.284;2022-12-20T16:41:50;42.40;;;30.63;;
18997;SDS011;9632;51.018;4.284;2022-12-20T16:44:15;20.95;;;14.90;;
18997;SDS011;9632;51.018;4.284;2022-12-20T16:46:42;16.05;;;13.13;;
18997;SDS011;9632;51.018;4.284;2022-12-20T16:49:08;13.60;;;10.05;;
18997;SDS011;9632;51.018;4.284;2022-12-20T16:51:39;11.05;;;7.90;;
18997;SDS011;9632;51.018;4.284;2022-12-20T16:54:12;10.40;;;6.93;;
18997;SDS011;9632;51.018;4.284;2022-12-20T16:56:39;9.80;;;6.60;;
18997;SDS011;9632;51.018;4.284;2022-12-20T16:59:05;29.35;;;18.75;;
18997;SDS011;9632;51.018;4.284;2022-12-20T17:01:35;13.70;;;10.55;;
18997;SDS011;9632;51.018;4.284;2022-12-20T17:04:02;12.93;;;7.82;;
18997;SDS011;9632;51.018;4.284;2022-12-20T17:06:28;40.10;;;32.58;;
18997;SDS011;9632;51.018;4.284;2022-12-20T17:08:54;14.90;;;9.18;;
18997;SDS011;9632;51.018;4.284;2022-12-20T17:11:24;12.48;;;8.13;;
18997;SDS011;9632;51.018;4.284;2022-12-20T17:13:53;10.70;;;7.10;;
18997;SDS011;9632;51.018;4.284;2022-12-20T17:16:20;10.40;;;6.72;;
18997;SDS011;9632;51.018;4.284;2022-12-20T17:18:47;9.77;;;6.70;;
18997;SDS011;9632;51.018;4.284;2022-12-20T17:23:43;16.88;;;10.75;;